Main page
METAR-TAF:

METAR-TAF

Airports :

Alderney Airport

Alderney,

latitude: 49-43N, longitude: 002-12W, elevation: 71 m

Current weather observation

The report was made 27 minutes ago, at 08:50 UTC
Wind 2 kt from variable directions
Temperature 11°C
Humidity 76%
Pressure 1035 hPa
Visibility 10 km or more
no clouds below 1500 m and no cumulonimbus

METAR: EGJA 260850Z VRB02KT CAVOK 11/07 Q1035

Time: 09:17 (09:17 UTC)

Forecast

The report was made 1 hour and 22 minutes ago, at 07:55 UTC
Forecast valid from 26 at 09 UTC to 26 at 18 UTC
Wind 3 kt from variable directions
Visibility 10 km or more
no clouds below 1500 m and no cumulonimbus

TAF: EGJA 260755Z 2609/2618 VRB03KT CAVOK

Weather observations and forecasts of more than 4000 airports (METAR and TAF reports).

The available stations are represented by yellow and red dots on the map.

Hover mouse over dot to see the name of the station.

Then click to see weather observations and forecasts.

To change the map : click on the green buttons with a black cross to zoom in, on the green button with a dash to zoom out, or on the green arrows for adjacent maps.


METAR-TAF: